createdAt,value
2016-09-17T00:03:04.527Z,"  -67"
2016-09-17T00:08:02.100Z,"  -67"
2016-09-17T00:12:58.598Z,"  -68"
2016-09-17T00:17:55.274Z,"  -70"
2016-09-17T00:22:52.241Z,"  -67"
2016-09-17T00:27:48.716Z,"  -68"
2016-09-17T00:32:45.277Z,"  -66"
2016-09-17T00:37:41.815Z,"  -67"
2016-09-17T00:42:38.495Z,"  -68"
2016-09-17T00:47:35.100Z,"  -69"
2016-09-17T00:52:31.679Z,"  -68"
2016-09-17T00:57:28.679Z,"  -67"
2016-09-17T01:02:25.340Z,"  -69"
2016-09-17T01:07:22.156Z,"  -68"
2016-09-17T01:12:18.951Z,"  -68"
2016-09-17T01:17:15.715Z,"  -68"
2016-09-17T01:22:12.580Z,"  -69"
2016-09-17T01:27:09.213Z,"  -69"
2016-09-17T01:32:05.730Z,"  -65"
2016-09-17T01:37:02.356Z,"  -70"
2016-09-17T01:41:58.943Z,"  -68"
2016-09-17T01:46:55.561Z,"  -68"
2016-09-17T01:51:52.460Z,"  -69"
2016-09-17T01:56:49.543Z,"  -70"
2016-09-17T02:01:47.577Z,"  -70"
2016-09-17T02:06:44.523Z,"  -66"
2016-09-17T02:11:41.117Z,"  -69"
2016-09-17T02:16:37.519Z,"  -68"
2016-09-17T02:21:34.518Z,"  -68"
2016-09-17T02:26:31.050Z,"  -70"
2016-09-17T02:31:27.611Z,"  -69"
2016-09-17T02:36:24.297Z,"  -68"
2016-09-17T02:41:20.789Z,"  -69"
2016-09-17T02:46:17.475Z,"  -69"
2016-09-17T02:51:16.592Z,"  -69"
2016-09-17T02:56:12.693Z,"  -70"
2016-09-17T03:01:09.646Z,"  -69"
2016-09-17T03:06:09.011Z,"  -69"
2016-09-17T03:11:05.111Z,"  -69"
2016-09-17T03:16:02.156Z,"  -70"
2016-09-17T03:20:58.790Z,"  -69"
2016-09-17T03:25:55.383Z,"  -69"
2016-09-17T03:30:51.791Z,"  -69"
2016-09-17T03:35:48.522Z,"  -69"
2016-09-17T03:40:47.987Z,"  -66"
2016-09-17T03:45:43.899Z,"  -70"
2016-09-17T03:50:40.527Z,"  -69"
2016-09-17T03:55:37.082Z,"  -67"
2016-09-17T04:00:33.529Z,"  -69"
2016-09-17T04:05:30.060Z,"  -69"
2016-09-17T04:10:26.589Z,"  -70"
2016-09-17T04:15:23.530Z,"  -69"
2016-09-17T04:20:20.158Z,"  -69"
2016-09-17T04:25:16.431Z,"  -68"
2016-09-17T04:30:13.495Z,"  -69"
2016-09-17T04:35:11.481Z,"  -65"
2016-09-17T04:40:08.036Z,"  -68"
2016-09-17T04:45:04.705Z,"  -69"
2016-09-17T04:50:01.680Z,"  -70"
2016-09-17T04:54:58.638Z,"  -69"
2016-09-17T04:59:55.153Z,"  -70"
2016-09-17T05:04:51.940Z,"  -68"
2016-09-17T05:09:48.585Z,"  -67"
2016-09-17T05:14:45.141Z,"  -68"
2016-09-17T05:19:41.670Z,"  -68"
2016-09-17T05:24:38.517Z,"  -67"
2016-09-17T05:29:35.040Z,"  -68"
2016-09-17T05:34:31.839Z,"  -67"
2016-09-17T05:39:28.425Z,"  -68"
2016-09-17T05:44:25.123Z,"  -67"
2016-09-17T05:49:21.753Z,"  -68"
2016-09-17T05:54:18.835Z,"  -68"
2016-09-17T05:59:15.366Z,"  -67"
2016-09-17T06:04:12.153Z,"  -68"
2016-09-17T06:09:08.904Z,"  -68"
2016-09-17T06:14:05.680Z,"  -67"
2016-09-17T06:19:02.253Z,"  -67"
2016-09-17T06:23:59.461Z,"  -67"
2016-09-17T06:28:55.966Z,"  -68"
2016-09-17T06:33:52.561Z,"  -68"
2016-09-17T06:38:49.208Z,"  -68"
2016-09-17T06:43:45.951Z,"  -67"
2016-09-17T06:48:42.619Z,"  -68"
2016-09-17T06:53:39.320Z,"  -68"
2016-09-17T06:58:38.580Z,"  -67"
2016-09-17T07:03:34.715Z,"  -67"
2016-09-17T07:08:31.492Z,"  -66"
2016-09-17T07:13:29.987Z,"  -67"
2016-09-17T07:18:26.496Z,"  -67"
2016-09-17T07:23:23.563Z,"  -68"
2016-09-17T07:28:20.263Z,"  -68"
2016-09-17T07:33:16.864Z,"  -67"
2016-09-17T07:38:13.433Z,"  -67"
2016-09-17T07:43:09.872Z,"  -68"
2016-09-17T07:48:06.520Z,"  -67"
2016-09-17T07:53:03.276Z,"  -67"
2016-09-17T07:57:59.901Z,"  -65"
2016-09-17T08:02:56.487Z,"  -64"
2016-09-17T08:07:53.499Z,"  -64"
2016-09-17T08:12:50.545Z,"  -64"
2016-09-17T08:17:47.316Z,"  -64"
2016-09-17T08:22:44.009Z,"  -64"
2016-09-17T08:27:40.518Z,"  -64"
2016-09-17T08:32:37.122Z,"  -62"
2016-09-17T08:37:33.704Z,"  -69"
2016-09-17T08:42:30.666Z,"  -66"
2016-09-17T08:47:27.382Z,"  -58"
2016-09-17T08:52:24.172Z,"  -60"
2016-09-17T08:57:20.950Z,"  -61"
2016-09-17T09:02:17.733Z,"  -67"
2016-09-17T09:07:14.279Z,"  -59"
2016-09-17T09:12:11.296Z,"  -67"
2016-09-17T09:17:09.612Z,"  -71"
2016-09-17T09:22:06.701Z,"  -81"
2016-09-17T09:27:03.841Z,"  -70"
2016-09-17T09:32:00.342Z,"  -70"
2016-09-17T09:36:56.889Z,"  -78"
2016-09-17T09:41:53.476Z,"  -73"
2016-09-17T09:46:50.140Z,"  -72"
2016-09-17T09:51:46.755Z,"  -73"
2016-09-17T09:56:43.239Z,"  -72"
2016-09-17T10:01:39.979Z,"  -71"
2016-09-17T10:06:36.502Z,"  -72"
2016-09-17T10:11:33.146Z,"  -74"
2016-09-17T10:16:29.745Z,"  -78"
2016-09-17T10:21:26.303Z,"  -77"
2016-09-17T10:26:24.029Z,"  -79"
2016-09-17T10:31:20.183Z,"  -78"
2016-09-17T10:36:16.862Z,"  -78"
2016-09-17T10:41:13.627Z,"  -78"
2016-09-17T10:46:10.700Z,"  -77"
2016-09-17T10:51:07.344Z,"  -77"
2016-09-17T10:56:04.430Z,"  -78"
2016-09-17T11:01:01.066Z,"  -76"
2016-09-17T11:06:00.181Z,"  -73"
2016-09-17T11:10:56.215Z,"  -75"
2016-09-17T11:15:52.917Z,"  -75"
2016-09-17T11:20:49.499Z,"  -79"
2016-09-17T11:25:46.181Z,"  -71"
2016-09-17T11:30:42.764Z,"  -68"
2016-09-17T11:35:39.151Z,"  -76"
2016-09-17T11:40:36.117Z,"  -79"
2016-09-17T11:45:32.728Z,"  -80"
2016-09-17T11:50:29.481Z,"  -80"
2016-09-17T11:55:26.261Z,"  -79"
2016-09-17T12:00:22.936Z,"  -76"
2016-09-17T12:05:19.573Z,"  -75"
2016-09-17T12:10:16.225Z,"  -79"
2016-09-17T12:15:12.712Z,"  -79"
2016-09-17T12:20:09.549Z,"  -71"
2016-09-17T12:25:06.602Z,"  -80"
2016-09-17T12:30:03.254Z,"  -79"
2016-09-17T12:35:00.072Z,"  -78"
2016-09-17T12:39:56.714Z,"  -80"
2016-09-17T12:44:53.274Z,"  -79"
2016-09-17T12:49:51.128Z,"  -78"
2016-09-17T12:54:48.015Z,"  -77"
2016-09-17T12:59:44.551Z,"  -79"
2016-09-17T13:04:41.281Z,"  -78"
2016-09-17T13:09:37.988Z,"  -76"
2016-09-17T13:14:35.320Z,"  -71"
2016-09-17T13:19:32.777Z,"  -73"
2016-09-17T13:24:29.374Z,"  -78"
2016-09-17T13:29:26.003Z,"  -77"
2016-09-17T13:34:22.873Z,"  -77"
2016-09-17T13:39:19.742Z,"  -73"
2016-09-17T13:44:16.165Z,"  -76"
2016-09-17T13:49:13.116Z,"  -79"
2016-09-17T13:54:09.580Z,"  -76"
2016-09-17T13:59:06.126Z,"  -80"
2016-09-17T14:04:03.126Z,"  -77"
2016-09-17T14:09:00.077Z,"  -77"
2016-09-17T14:13:56.583Z,"  -79"
2016-09-17T14:18:53.161Z,"  -74"
2016-09-17T14:23:50.060Z,"  -76"
2016-09-17T14:28:46.640Z,"  -77"
2016-09-17T14:33:43.395Z,"  -78"
2016-09-17T14:38:39.909Z,"  -79"
2016-09-17T14:43:36.585Z,"  -75"
2016-09-17T14:48:33.275Z,"  -73"
2016-09-17T14:53:29.768Z,"  -79"
2016-09-17T14:58:27.592Z,"  -71"
2016-09-17T15:03:24.329Z,"  -68"
2016-09-17T15:08:21.230Z,"  -78"
2016-09-17T15:13:18.171Z,"  -79"
2016-09-17T15:18:14.540Z,"  -77"
2016-09-17T15:23:11.331Z,"  -70"
2016-09-17T15:28:09.055Z,"  -67"
2016-09-17T15:33:05.423Z,"  -67"
2016-09-17T15:38:02.237Z,"  -68"
2016-09-17T15:42:58.922Z,"  -68"
2016-09-17T15:47:56.036Z,"  -67"
2016-09-17T15:52:52.657Z,"  -69"
2016-09-17T15:57:49.470Z,"  -65"
2016-09-17T16:02:46.219Z,"  -73"
2016-09-17T16:07:43.016Z,"  -64"
2016-09-17T16:12:39.574Z,"  -67"
2016-09-17T16:17:36.135Z,"  -67"
2016-09-17T16:22:32.618Z,"  -68"
2016-09-17T16:27:29.169Z,"  -67"
2016-09-17T16:32:25.784Z,"  -67"
2016-09-17T16:37:22.460Z,"  -64"
2016-09-17T16:42:19.058Z,"  -64"
2016-09-17T16:47:15.689Z,"  -67"
2016-09-17T16:52:12.484Z,"  -66"
2016-09-17T16:57:08.988Z,"  -68"
2016-09-17T17:02:05.378Z,"  -69"
2016-09-17T17:07:01.908Z,"  -70"
2016-09-17T17:11:58.383Z,"  -70"
2016-09-17T17:16:54.980Z,"  -66"
2016-09-17T17:21:51.534Z,"  -66"
2016-09-17T17:26:48.308Z,"  -74"
2016-09-17T17:31:44.925Z,"  -69"
2016-09-17T17:36:41.957Z,"  -77"
2016-09-17T17:41:38.591Z,"  -78"
2016-09-17T17:46:35.231Z,"  -73"
2016-09-17T17:51:31.867Z,"  -72"
2016-09-17T17:56:28.576Z,"  -76"
2016-09-17T18:01:25.889Z,"  -67"
2016-09-17T18:06:22.472Z,"  -78"
2016-09-17T18:11:19.072Z,"  -75"
2016-09-17T18:16:15.701Z,"  -75"
2016-09-17T18:21:12.453Z,"  -73"
2016-09-17T18:26:09.003Z,"  -66"
2016-09-17T18:31:05.576Z,"  -73"
2016-09-17T18:36:02.132Z,"  -74"
2016-09-17T18:40:58.696Z,"  -71"
2016-09-17T18:45:55.252Z,"  -67"
2016-09-17T18:50:51.902Z,"  -76"
2016-09-17T18:55:49.230Z,"  -76"
2016-09-17T19:00:45.923Z,"  -75"
2016-09-17T19:05:42.473Z,"  -69"
2016-09-17T19:10:39.606Z,"  -74"
2016-09-17T19:15:36.594Z,"  -76"
2016-09-17T19:20:33.271Z,"  -67"
2016-09-17T19:25:29.989Z,"  -71"
2016-09-17T19:30:26.447Z,"  -65"
2016-09-17T19:35:22.963Z,"  -77"
2016-09-17T19:40:19.534Z,"  -77"
2016-09-17T19:45:16.049Z,"  -76"
2016-09-17T19:50:12.796Z,"  -78"
2016-09-17T19:55:09.277Z,"  -77"
2016-09-17T20:00:05.915Z,"  -77"
2016-09-17T20:05:02.790Z,"  -77"
2016-09-17T20:09:59.484Z,"  -77"
2016-09-17T20:14:56.484Z,"  -77"
2016-09-17T20:19:53.004Z,"  -75"
2016-09-17T20:24:49.704Z,"  -77"
2016-09-17T20:29:46.156Z,"  -77"
2016-09-17T20:34:42.978Z,"  -77"
2016-09-17T20:39:39.590Z,"  -76"
2016-09-17T20:44:36.768Z,"  -77"
2016-09-17T20:49:35.767Z,"  -76"
2016-09-17T20:54:31.723Z,"  -74"
2016-09-17T20:59:28.526Z,"  -77"
2016-09-17T21:04:25.002Z,"  -76"
2016-09-17T21:09:21.906Z,"  -76"
2016-09-17T21:14:18.784Z,"  -74"
2016-09-17T21:19:15.311Z,"  -75"
2016-09-17T21:24:11.816Z,"  -73"
2016-09-17T21:29:08.352Z,"  -73"
2016-09-17T21:34:05.336Z,"  -71"
2016-09-17T21:39:01.891Z,"  -73"
2016-09-17T21:43:59.245Z,"  -74"
2016-09-17T21:48:55.894Z,"  -74"
2016-09-17T21:53:52.550Z,"  -73"
2016-09-17T21:58:49.301Z,"  -74"
2016-09-17T22:03:45.736Z,"  -73"
2016-09-17T22:08:42.481Z,"  -69"
2016-09-17T22:13:39.307Z,"  -71"
2016-09-17T22:18:35.962Z,"  -74"
2016-09-17T22:23:32.595Z,"  -73"
2016-09-17T22:28:29.197Z,"  -73"
2016-09-17T22:33:25.725Z,"  -73"
2016-09-17T22:38:22.264Z,"  -74"
2016-09-17T22:43:18.773Z,"  -73"
2016-09-17T22:48:15.319Z,"  -72"
2016-09-17T22:53:11.957Z,"  -73"
2016-09-17T22:58:08.584Z,"  -74"
2016-09-17T23:03:05.603Z,"  -72"
2016-09-17T23:08:02.849Z,"  -71"
2016-09-17T23:12:59.675Z,"  -73"
2016-09-17T23:17:59.141Z,"  -70"
2016-09-17T23:22:55.050Z,"  -72"
2016-09-17T23:27:52.116Z,"  -73"
2016-09-17T23:32:48.682Z,"  -72"
2016-09-17T23:37:45.022Z,"  -72"
2016-09-17T23:42:41.666Z,"  -71"
2016-09-17T23:47:38.099Z,"  -72"
2016-09-17T23:52:34.890Z,"  -71"
2016-09-17T23:57:31.488Z,"  -74"
